sensor_id;sensor_type;location;lat;lon;timestamp;P1;durP1;ratioP1;P2;durP2;ratioP2
80494;SDS011;69819;48.798;11.770;2023-07-28T00:00:08;1.00;;;1.00;;
80494;SDS011;69819;48.798;11.770;2023-07-28T00:02:35;0.98;;;0.98;;
80494;SDS011;69819;48.798;11.770;2023-07-28T00:05:01;1.73;;;1.30;;
80494;SDS011;69819;48.798;11.770;2023-07-28T00:07:26;1.30;;;1.20;;
80494;SDS011;69819;48.798;11.770;2023-07-28T00:09:52;1.63;;;1.45;;
80494;SDS011;69819;48.798;11.770;2023-07-28T00:12:18;1.50;;;1.40;;
80494;SDS011;69819;48.798;11.770;2023-07-28T00:14:45;1.20;;;1.20;;
80494;SDS011;69819;48.798;11.770;2023-07-28T00:17:11;1.30;;;1.20;;
80494;SDS011;69819;48.798;11.770;2023-07-28T00:19:36;1.40;;;1.30;;
80494;SDS011;69819;48.798;11.770;2023-07-28T00:22:02;1.50;;;1.40;;
80494;SDS011;69819;48.798;11.770;2023-07-28T00:24:28;1.33;;;1.23;;
80494;SDS011;69819;48.798;11.770;2023-07-28T00:26:54;1.50;;;1.40;;
80494;SDS011;69819;48.798;11.770;2023-07-28T00:29:20;2.13;;;1.35;;
80494;SDS011;69819;48.798;11.770;2023-07-28T00:31:46;1.40;;;1.30;;
80494;SDS011;69819;48.798;11.770;2023-07-28T00:34:11;1.20;;;1.10;;
80494;SDS011;69819;48.798;11.770;2023-07-28T00:36:37;1.23;;;1.20;;
80494;SDS011;69819;48.798;11.770;2023-07-28T00:39:03;1.70;;;1.52;;
80494;SDS011;69819;48.798;11.770;2023-07-28T00:41:29;2.20;;;1.27;;
80494;SDS011;69819;48.798;11.770;2023-07-28T00:43:55;1.20;;;1.10;;
80494;SDS011;69819;48.798;11.770;2023-07-28T00:46:20;1.48;;;1.38;;
80494;SDS011;69819;48.798;11.770;2023-07-28T00:48:47;2.60;;;1.45;;
80494;SDS011;69819;48.798;11.770;2023-07-28T00:51:13;2.20;;;1.42;;
80494;SDS011;69819;48.798;11.770;2023-07-28T00:53:39;2.88;;;1.60;;
80494;SDS011;69819;48.798;11.770;2023-07-28T00:56:05;1.52;;;1.42;;
80494;SDS011;69819;48.798;11.770;2023-07-28T00:58:32;1.27;;;1.20;;
80494;SDS011;69819;48.798;11.770;2023-07-28T01:00:59;1.33;;;1.23;;
80494;SDS011;69819;48.798;11.770;2023-07-28T01:03:25;1.40;;;1.30;;
80494;SDS011;69819;48.798;11.770;2023-07-28T01:06:13;1.30;;;1.20;;
80494;SDS011;69819;48.798;11.770;2023-07-28T01:09:02;0.95;;;0.95;;
80494;SDS011;69819;48.798;11.770;2023-07-28T01:11:34;1.20;;;1.10;;
80494;SDS011;69819;48.798;11.770;2023-07-28T01:14:00;1.58;;;1.15;;
80494;SDS011;69819;48.798;11.770;2023-07-28T01:16:26;1.40;;;1.20;;
80494;SDS011;69819;48.798;11.770;2023-07-28T01:18:52;1.55;;;1.30;;
80494;SDS011;69819;48.798;11.770;2023-07-28T01:21:22;1.45;;;1.25;;
80494;SDS011;69819;48.798;11.770;2023-07-28T01:26:32;1.20;;;1.10;;
80494;SDS011;69819;48.798;11.770;2023-07-28T01:29:03;1.10;;;1.00;;
80494;SDS011;69819;48.798;11.770;2023-07-28T01:31:30;2.33;;;1.38;;
80494;SDS011;69819;48.798;11.770;2023-07-28T01:33:57;1.40;;;1.30;;
80494;SDS011;69819;48.798;11.770;2023-07-28T01:36:23;1.17;;;0.95;;
80494;SDS011;69819;48.798;11.770;2023-07-28T01:38:49;2.13;;;1.33;;
80494;SDS011;69819;48.798;11.770;2023-07-28T01:41:15;1.20;;;1.10;;
80494;SDS011;69819;48.798;11.770;2023-07-28T01:43:40;1.00;;;0.90;;
80494;SDS011;69819;48.798;11.770;2023-07-28T01:46:09;1.10;;;1.05;;
80494;SDS011;69819;48.798;11.770;2023-07-28T01:48:35;1.33;;;1.23;;
80494;SDS011;69819;48.798;11.770;2023-07-28T01:51:01;1.55;;;1.45;;
80494;SDS011;69819;48.798;11.770;2023-07-28T01:53:27;1.02;;;1.02;;
80494;SDS011;69819;48.798;11.770;2023-07-28T01:55:53;1.23;;;1.13;;
80494;SDS011;69819;48.798;11.770;2023-07-28T01:58:18;1.42;;;1.33;;
80494;SDS011;69819;48.798;11.770;2023-07-28T02:00:44;1.30;;;1.20;;
80494;SDS011;69819;48.798;11.770;2023-07-28T02:03:11;1.50;;;1.40;;
80494;SDS011;69819;48.798;11.770;2023-07-28T02:05:37;1.50;;;1.40;;
80494;SDS011;69819;48.798;11.770;2023-07-28T02:08:03;2.78;;;1.30;;
80494;SDS011;69819;48.798;11.770;2023-07-28T02:10:30;1.40;;;1.30;;
80494;SDS011;69819;48.798;11.770;2023-07-28T02:12:56;1.85;;;1.40;;
80494;SDS011;69819;48.798;11.770;2023-07-28T02:15:22;1.40;;;1.30;;
80494;SDS011;69819;48.798;11.770;2023-07-28T02:17:48;1.30;;;1.20;;
80494;SDS011;69819;48.798;11.770;2023-07-28T02:20:14;1.58;;;1.33;;
80494;SDS011;69819;48.798;11.770;2023-07-28T02:22:40;1.35;;;1.27;;
80494;SDS011;69819;48.798;11.770;2023-07-28T02:25:08;1.58;;;1.30;;
80494;SDS011;69819;48.798;11.770;2023-07-28T02:27:35;1.42;;;1.30;;
80494;SDS011;69819;48.798;11.770;2023-07-28T02:30:05;1.70;;;1.27;;
80494;SDS011;69819;48.798;11.770;2023-07-28T02:32:31;1.13;;;1.08;;
80494;SDS011;69819;48.798;11.770;2023-07-28T02:34:58;1.45;;;1.13;;
80494;SDS011;69819;48.798;11.770;2023-07-28T02:37:24;1.35;;;1.20;;
80494;SDS011;69819;48.798;11.770;2023-07-28T02:39:50;1.80;;;1.48;;
80494;SDS011;69819;48.798;11.770;2023-07-28T02:42:16;1.50;;;1.30;;
80494;SDS011;69819;48.798;11.770;2023-07-28T02:44:42;1.98;;;1.70;;
80494;SDS011;69819;48.798;11.770;2023-07-28T02:47:08;1.63;;;1.52;;
80494;SDS011;69819;48.798;11.770;2023-07-28T02:49:34;1.30;;;1.20;;
80494;SDS011;69819;48.798;11.770;2023-07-28T02:52:00;1.30;;;1.23;;
80494;SDS011;69819;48.798;11.770;2023-07-28T02:54:28;1.40;;;1.30;;
80494;SDS011;69819;48.798;11.770;2023-07-28T02:56:53;1.50;;;1.40;;
80494;SDS011;69819;48.798;11.770;2023-07-28T02:59:20;1.55;;;1.40;;
80494;SDS011;69819;48.798;11.770;2023-07-28T03:01:47;1.48;;;1.38;;
80494;SDS011;69819;48.798;11.770;2023-07-28T03:04:13;1.95;;;1.50;;
80494;SDS011;69819;48.798;11.770;2023-07-28T03:06:39;1.92;;;1.27;;
80494;SDS011;69819;48.798;11.770;2023-07-28T03:09:05;1.40;;;1.30;;
80494;SDS011;69819;48.798;11.770;2023-07-28T03:11:31;1.52;;;1.40;;
80494;SDS011;69819;48.798;11.770;2023-07-28T03:13:57;1.42;;;1.33;;
80494;SDS011;69819;48.798;11.770;2023-07-28T03:16:23;1.35;;;1.25;;
80494;SDS011;69819;48.798;11.770;2023-07-28T03:18:49;1.33;;;1.23;;
80494;SDS011;69819;48.798;11.770;2023-07-28T03:21:15;1.55;;;1.45;;
80494;SDS011;69819;48.798;11.770;2023-07-28T03:23:41;1.33;;;1.23;;
80494;SDS011;69819;48.798;11.770;2023-07-28T03:26:06;1.58;;;1.48;;
80494;SDS011;69819;48.798;11.770;2023-07-28T03:28:32;1.35;;;1.25;;
80494;SDS011;69819;48.798;11.770;2023-07-28T03:30:58;1.45;;;1.35;;
80494;SDS011;69819;48.798;11.770;2023-07-28T03:33:24;1.83;;;1.73;;
80494;SDS011;69819;48.798;11.770;2023-07-28T03:35:50;1.60;;;1.48;;
80494;SDS011;69819;48.798;11.770;2023-07-28T03:38:15;1.50;;;1.40;;
80494;SDS011;69819;48.798;11.770;2023-07-28T03:40:42;1.55;;;1.45;;
80494;SDS011;69819;48.798;11.770;2023-07-28T03:43:08;1.52;;;1.40;;
80494;SDS011;69819;48.798;11.770;2023-07-28T03:45:34;1.58;;;1.48;;
80494;SDS011;69819;48.798;11.770;2023-07-28T03:48:00;2.17;;;1.65;;
80494;SDS011;69819;48.798;11.770;2023-07-28T03:50:26;2.40;;;2.20;;
80494;SDS011;69819;48.798;11.770;2023-07-28T03:52:53;2.38;;;2.17;;
80494;SDS011;69819;48.798;11.770;2023-07-28T03:55:19;2.35;;;1.98;;
80494;SDS011;69819;48.798;11.770;2023-07-28T03:57:45;1.90;;;1.75;;
80494;SDS011;69819;48.798;11.770;2023-07-28T04:00:11;1.80;;;1.70;;
80494;SDS011;69819;48.798;11.770;2023-07-28T04:02:38;1.83;;;1.73;;
80494;SDS011;69819;48.798;11.770;2023-07-28T04:05:05;2.28;;;1.55;;
80494;SDS011;69819;48.798;11.770;2023-07-28T04:07:31;1.65;;;1.55;;
80494;SDS011;69819;48.798;11.770;2023-07-28T04:09:56;1.60;;;1.50;;
80494;SDS011;69819;48.798;11.770;2023-07-28T04:12:22;1.70;;;1.60;;
80494;SDS011;69819;48.798;11.770;2023-07-28T04:14:48;1.58;;;1.48;;
80494;SDS011;69819;48.798;11.770;2023-07-28T04:17:14;1.85;;;1.55;;
80494;SDS011;69819;48.798;11.770;2023-07-28T04:19:40;1.80;;;1.70;;
80494;SDS011;69819;48.798;11.770;2023-07-28T04:22:05;1.77;;;1.67;;
80494;SDS011;69819;48.798;11.770;2023-07-28T04:24:31;2.40;;;2.00;;
80494;SDS011;69819;48.798;11.770;2023-07-28T04:26:57;2.40;;;2.20;;
80494;SDS011;69819;48.798;11.770;2023-07-28T04:29:23;2.03;;;1.92;;
80494;SDS011;69819;48.798;11.770;2023-07-28T04:31:49;2.22;;;1.80;;
80494;SDS011;69819;48.798;11.770;2023-07-28T04:34:15;2.15;;;1.67;;
80494;SDS011;69819;48.798;11.770;2023-07-28T04:36:41;1.85;;;1.60;;
80494;SDS011;69819;48.798;11.770;2023-07-28T04:39:06;1.88;;;1.60;;
80494;SDS011;69819;48.798;11.770;2023-07-28T04:41:32;2.50;;;1.70;;
80494;SDS011;69819;48.798;11.770;2023-07-28T04:43:58;1.60;;;1.50;;
80494;SDS011;69819;48.798;11.770;2023-07-28T04:46:24;2.08;;;1.60;;
80494;SDS011;69819;48.798;11.770;2023-07-28T04:48:50;2.47;;;1.52;;
80494;SDS011;69819;48.798;11.770;2023-07-28T04:51:15;1.35;;;1.25;;
80494;SDS011;69819;48.798;11.770;2023-07-28T04:53:41;1.42;;;1.27;;
80494;SDS011;69819;48.798;11.770;2023-07-28T04:56:07;1.75;;;1.35;;
80494;SDS011;69819;48.798;11.770;2023-07-28T04:58:33;5.65;;;1.50;;
80494;SDS011;69819;48.798;11.770;2023-07-28T05:00:59;1.63;;;1.50;;
80494;SDS011;69819;48.798;11.770;2023-07-28T05:03:26;1.50;;;1.40;;
80494;SDS011;69819;48.798;11.770;2023-07-28T05:05:52;2.95;;;1.67;;
80494;SDS011;69819;48.798;11.770;2023-07-28T05:08:18;1.65;;;1.45;;
80494;SDS011;69819;48.798;11.770;2023-07-28T05:10:43;2.00;;;1.83;;
80494;SDS011;69819;48.798;11.770;2023-07-28T05:13:09;2.08;;;1.70;;
80494;SDS011;69819;48.798;11.770;2023-07-28T05:15:35;1.55;;;1.42;;
80494;SDS011;69819;48.798;11.770;2023-07-28T05:18:01;1.63;;;1.52;;
80494;SDS011;69819;48.798;11.770;2023-07-28T05:20:27;1.90;;;1.65;;
80494;SDS011;69819;48.798;11.770;2023-07-28T05:22:53;1.60;;;1.40;;
80494;SDS011;69819;48.798;11.770;2023-07-28T05:25:19;1.60;;;1.50;;
80494;SDS011;69819;48.798;11.770;2023-07-28T05:27:45;1.52;;;1.38;;
80494;SDS011;69819;48.798;11.770;2023-07-28T05:30:12;1.63;;;1.52;;
80494;SDS011;69819;48.798;11.770;2023-07-28T05:32:38;1.85;;;1.73;;
80494;SDS011;69819;48.798;11.770;2023-07-28T05:35:04;10.90;;;2.00;;
80494;SDS011;69819;48.798;11.770;2023-07-28T05:37:30;1.70;;;1.60;;
80494;SDS011;69819;48.798;11.770;2023-07-28T05:39:56;1.65;;;1.55;;
80494;SDS011;69819;48.798;11.770;2023-07-28T05:42:22;1.67;;;1.50;;
80494;SDS011;69819;48.798;11.770;2023-07-28T05:44:49;1.50;;;1.40;;
80494;SDS011;69819;48.798;11.770;2023-07-28T05:47:17;2.40;;;1.80;;
80494;SDS011;69819;48.798;11.770;2023-07-28T05:49:43;1.90;;;1.80;;
80494;SDS011;69819;48.798;11.770;2023-07-28T05:52:08;1.58;;;1.48;;
80494;SDS011;69819;48.798;11.770;2023-07-28T05:54:34;2.65;;;1.70;;
80494;SDS011;69819;48.798;11.770;2023-07-28T05:57:00;1.58;;;1.48;;
80494;SDS011;69819;48.798;11.770;2023-07-28T05:59:26;1.50;;;1.40;;
80494;SDS011;69819;48.798;11.770;2023-07-28T06:01:52;1.70;;;1.60;;
80494;SDS011;69819;48.798;11.770;2023-07-28T06:04:18;1.83;;;1.73;;
80494;SDS011;69819;48.798;11.770;2023-07-28T06:06:44;1.70;;;1.55;;
80494;SDS011;69819;48.798;11.770;2023-07-28T06:09:09;1.80;;;1.55;;
80494;SDS011;69819;48.798;11.770;2023-07-28T06:11:35;1.75;;;1.65;;
80494;SDS011;69819;48.798;11.770;2023-07-28T06:14:01;1.52;;;1.42;;
80494;SDS011;69819;48.798;11.770;2023-07-28T06:16:27;1.73;;;1.63;;
80494;SDS011;69819;48.798;11.770;2023-07-28T06:18:53;2.22;;;1.73;;
80494;SDS011;69819;48.798;11.770;2023-07-28T06:21:18;2.83;;;1.88;;
80494;SDS011;69819;48.798;11.770;2023-07-28T06:23:44;2.80;;;1.88;;
80494;SDS011;69819;48.798;11.770;2023-07-28T06:26:10;2.65;;;1.70;;
80494;SDS011;69819;48.798;11.770;2023-07-28T06:28:36;3.17;;;1.80;;
80494;SDS011;69819;48.798;11.770;2023-07-28T06:31:03;2.95;;;1.50;;
80494;SDS011;69819;48.798;11.770;2023-07-28T06:33:29;1.77;;;1.65;;
80494;SDS011;69819;48.798;11.770;2023-07-28T06:35:55;1.65;;;1.55;;
80494;SDS011;69819;48.798;11.770;2023-07-28T06:38:22;1.92;;;1.73;;
80494;SDS011;69819;48.798;11.770;2023-07-28T06:40:48;1.70;;;1.60;;
80494;SDS011;69819;48.798;11.770;2023-07-28T06:43:13;1.70;;;1.60;;
80494;SDS011;69819;48.798;11.770;2023-07-28T06:45:39;1.50;;;1.40;;
80494;SDS011;69819;48.798;11.770;2023-07-28T06:48:05;1.90;;;1.80;;
80494;SDS011;69819;48.798;11.770;2023-07-28T06:50:31;1.95;;;1.80;;
80494;SDS011;69819;48.798;11.770;2023-07-28T06:52:57;1.77;;;1.67;;
80494;SDS011;69819;48.798;11.770;2023-07-28T06:55:23;2.05;;;1.67;;
80494;SDS011;69819;48.798;11.770;2023-07-28T06:57:49;1.80;;;1.70;;
80494;SDS011;69819;48.798;11.770;2023-07-28T07:00:15;2.08;;;1.88;;
80494;SDS011;69819;48.798;11.770;2023-07-28T07:02:43;2.60;;;1.70;;
80494;SDS011;69819;48.798;11.770;2023-07-28T07:05:09;1.70;;;1.60;;
80494;SDS011;69819;48.798;11.770;2023-07-28T07:07:36;2.05;;;1.70;;
80494;SDS011;69819;48.798;11.770;2023-07-28T07:10:03;1.70;;;1.60;;
80494;SDS011;69819;48.798;11.770;2023-07-28T07:12:31;2.08;;;1.88;;
80494;SDS011;69819;48.798;11.770;2023-07-28T07:14:57;3.38;;;1.80;;
80494;SDS011;69819;48.798;11.770;2023-07-28T07:17:23;2.25;;;2.10;;
80494;SDS011;69819;48.798;11.770;2023-07-28T07:19:49;2.42;;;2.22;;
80494;SDS011;69819;48.798;11.770;2023-07-28T07:22:14;1.83;;;1.73;;
80494;SDS011;69819;48.798;11.770;2023-07-28T07:24:40;2.03;;;1.88;;
80494;SDS011;69819;48.798;11.770;2023-07-28T07:27:07;2.05;;;1.95;;
80494;SDS011;69819;48.798;11.770;2023-07-28T07:29:36;2.10;;;2.00;;
80494;SDS011;69819;48.798;11.770;2023-07-28T07:32:05;1.85;;;1.75;;
80494;SDS011;69819;48.798;11.770;2023-07-28T07:34:33;1.88;;;1.77;;
80494;SDS011;69819;48.798;11.770;2023-07-28T07:36:59;1.77;;;1.67;;
80494;SDS011;69819;48.798;11.770;2023-07-28T07:39:26;2.25;;;1.98;;
80494;SDS011;69819;48.798;11.770;2023-07-28T07:41:52;1.60;;;1.50;;
80494;SDS011;69819;48.798;11.770;2023-07-28T07:44:18;1.88;;;1.77;;
80494;SDS011;69819;48.798;11.770;2023-07-28T07:46:44;6.25;;;2.10;;
80494;SDS011;69819;48.798;11.770;2023-07-28T07:49:09;2.20;;;2.03;;
80494;SDS011;69819;48.798;11.770;2023-07-28T07:51:35;2.30;;;1.70;;
80494;SDS011;69819;48.798;11.770;2023-07-28T07:54:01;1.65;;;1.55;;
80494;SDS011;69819;48.798;11.770;2023-07-28T07:56:27;1.85;;;1.75;;
80494;SDS011;69819;48.798;11.770;2023-07-28T07:58:53;1.77;;;1.67;;
80494;SDS011;69819;48.798;11.770;2023-07-28T08:01:19;1.63;;;1.52;;
80494;SDS011;69819;48.798;11.770;2023-07-28T08:03:45;1.85;;;1.75;;
80494;SDS011;69819;48.798;11.770;2023-07-28T08:06:11;2.08;;;1.70;;
80494;SDS011;69819;48.798;11.770;2023-07-28T08:08:37;1.65;;;1.55;;
80494;SDS011;69819;48.798;11.770;2023-07-28T08:11:03;1.60;;;1.50;;
80494;SDS011;69819;48.798;11.770;2023-07-28T08:13:30;1.70;;;1.60;;
80494;SDS011;69819;48.798;11.770;2023-07-28T08:15:56;1.65;;;1.55;;
80494;SDS011;69819;48.798;11.770;2023-07-28T08:18:22;1.63;;;1.52;;
80494;SDS011;69819;48.798;11.770;2023-07-28T08:20:48;2.38;;;1.60;;
80494;SDS011;69819;48.798;11.770;2023-07-28T08:23:15;1.75;;;1.65;;
80494;SDS011;69819;48.798;11.770;2023-07-28T08:25:42;1.42;;;1.27;;
80494;SDS011;69819;48.798;11.770;2023-07-28T08:28:08;3.17;;;1.83;;
80494;SDS011;69819;48.798;11.770;2023-07-28T08:30:34;1.92;;;1.35;;
80494;SDS011;69819;48.798;11.770;2023-07-28T08:33:00;1.55;;;1.45;;
80494;SDS011;69819;48.798;11.770;2023-07-28T08:35:27;1.73;;;1.63;;
80494;SDS011;69819;48.798;11.770;2023-07-28T08:37:53;1.58;;;1.40;;
80494;SDS011;69819;48.798;11.770;2023-07-28T08:40:18;1.83;;;1.50;;
80494;SDS011;69819;48.798;11.770;2023-07-28T08:42:45;1.70;;;1.58;;
80494;SDS011;69819;48.798;11.770;2023-07-28T08:45:11;1.63;;;1.52;;
80494;SDS011;69819;48.798;11.770;2023-07-28T08:47:38;1.73;;;1.63;;
80494;SDS011;69819;48.798;11.770;2023-07-28T08:50:04;1.77;;;1.50;;
80494;SDS011;69819;48.798;11.770;2023-07-28T08:52:33;1.90;;;1.80;;
80494;SDS011;69819;48.798;11.770;2023-07-28T08:54:59;1.20;;;1.10;;
80494;SDS011;69819;48.798;11.770;2023-07-28T08:57:25;1.98;;;1.35;;
80494;SDS011;69819;48.798;11.770;2023-07-28T08:59:52;2.75;;;1.67;;
80494;SDS011;69819;48.798;11.770;2023-07-28T09:02:19;1.42;;;1.33;;
80494;SDS011;69819;48.798;11.770;2023-07-28T09:04:46;2.28;;;1.50;;
80494;SDS011;69819;48.798;11.770;2023-07-28T09:07:14;1.50;;;1.40;;
80494;SDS011;69819;48.798;11.770;2023-07-28T09:09:40;1.60;;;1.50;;
80494;SDS011;69819;48.798;11.770;2023-07-28T09:12:07;2.15;;;1.65;;
80494;SDS011;69819;48.798;11.770;2023-07-28T09:14:36;2.13;;;1.70;;
80494;SDS011;69819;48.798;11.770;2023-07-28T09:17:09;1.83;;;1.70;;
80494;SDS011;69819;48.798;11.770;2023-07-28T09:19:55;1.38;;;1.30;;
80494;SDS011;69819;48.798;11.770;2023-07-28T09:22:22;1.75;;;1.65;;
80494;SDS011;69819;48.798;11.770;2023-07-28T09:24:48;1.30;;;1.20;;
80494;SDS011;69819;48.798;11.770;2023-07-28T09:27:23;1.83;;;1.70;;
80494;SDS011;69819;48.798;11.770;2023-07-28T09:29:52;1.55;;;1.45;;
80494;SDS011;69819;48.798;11.770;2023-07-28T09:32:30;1.17;;;1.17;;
80494;SDS011;69819;48.798;11.770;2023-07-28T09:35:11;1.50;;;1.40;;
80494;SDS011;69819;48.798;11.770;2023-07-28T09:37:39;1.50;;;1.45;;
80494;SDS011;69819;48.798;11.770;2023-07-28T09:40:08;1.40;;;1.30;;
80494;SDS011;69819;48.798;11.770;2023-07-28T09:42:39;1.40;;;1.30;;
80494;SDS011;69819;48.798;11.770;2023-07-28T09:45:06;1.63;;;1.52;;
80494;SDS011;69819;48.798;11.770;2023-07-28T09:47:35;1.98;;;1.88;;
80494;SDS011;69819;48.798;11.770;2023-07-28T09:50:03;2.10;;;1.88;;
80494;SDS011;69819;48.798;11.770;2023-07-28T09:52:53;2.13;;;1.83;;
80494;SDS011;69819;48.798;11.770;2023-07-28T09:55:22;1.75;;;1.65;;
80494;SDS011;69819;48.798;11.770;2023-07-28T09:57:52;1.70;;;1.60;;
80494;SDS011;69819;48.798;11.770;2023-07-28T10:00:24;1.95;;;1.67;;
80494;SDS011;69819;48.798;11.770;2023-07-28T10:02:51;2.70;;;1.70;;
80494;SDS011;69819;48.798;11.770;2023-07-28T10:05:18;2.05;;;1.85;;
80494;SDS011;69819;48.798;11.770;2023-07-28T10:07:45;1.75;;;1.52;;
80494;SDS011;69819;48.798;11.770;2023-07-28T10:10:14;1.90;;;1.70;;
80494;SDS011;69819;48.798;11.770;2023-07-28T10:12:51;2.88;;;1.23;;
80494;SDS011;69819;48.798;11.770;2023-07-28T10:15:20;1.45;;;1.35;;
80494;SDS011;69819;48.798;11.770;2023-07-28T10:17:54;1.52;;;1.42;;
80494;SDS011;69819;48.798;11.770;2023-07-28T10:25:38;1.52;;;1.42;;
80494;SDS011;69819;48.798;11.770;2023-07-28T10:28:06;1.60;;;1.40;;
80494;SDS011;69819;48.798;11.770;2023-07-28T10:31:02;1.88;;;1.48;;
80494;SDS011;69819;48.798;11.770;2023-07-28T10:33:33;2.50;;;1.50;;
80494;SDS011;69819;48.798;11.770;2023-07-28T10:39:02;1.52;;;1.42;;
80494;SDS011;69819;48.798;11.770;2023-07-28T10:44:48;1.23;;;1.17;;
80494;SDS011;69819;48.798;11.770;2023-07-28T10:47:15;1.58;;;1.48;;
80494;SDS011;69819;48.798;11.770;2023-07-28T10:49:42;1.70;;;1.25;;
80494;SDS011;69819;48.798;11.770;2023-07-28T10:52:08;1.50;;;1.40;;
80494;SDS011;69819;48.798;11.770;2023-07-28T10:54:34;1.52;;;1.40;;
80494;SDS011;69819;48.798;11.770;2023-07-28T10:57:03;1.65;;;1.55;;
80494;SDS011;69819;48.798;11.770;2023-07-28T10:59:29;1.50;;;1.40;;
80494;SDS011;69819;48.798;11.770;2023-07-28T11:01:55;1.52;;;1.42;;
80494;SDS011;69819;48.798;11.770;2023-07-28T11:04:22;1.42;;;1.33;;
80494;SDS011;69819;48.798;11.770;2023-07-28T11:06:48;1.77;;;1.67;;
80494;SDS011;69819;48.798;11.770;2023-07-28T11:09:17;1.65;;;1.55;;
80494;SDS011;69819;48.798;11.770;2023-07-28T11:11:46;1.75;;;1.50;;
80494;SDS011;69819;48.798;11.770;2023-07-28T11:14:15;2.00;;;1.75;;
80494;SDS011;69819;48.798;11.770;2023-07-28T11:16:42;1.83;;;1.73;;
80494;SDS011;69819;48.798;11.770;2023-07-28T11:19:13;1.67;;;1.58;;
80494;SDS011;69819;48.798;11.770;2023-07-28T11:21:39;1.77;;;1.65;;
80494;SDS011;69819;48.798;11.770;2023-07-28T11:24:07;1.58;;;1.48;;
80494;SDS011;69819;48.798;11.770;2023-07-28T11:26:34;1.35;;;1.25;;
80494;SDS011;69819;48.798;11.770;2023-07-28T11:29:04;1.50;;;1.40;;
80494;SDS011;69819;48.798;11.770;2023-07-28T11:31:31;1.50;;;1.40;;
80494;SDS011;69819;48.798;11.770;2023-07-28T11:33:58;2.45;;;1.58;;
80494;SDS011;69819;48.798;11.770;2023-07-28T11:36:25;1.50;;;1.40;;
80494;SDS011;69819;48.798;11.770;2023-07-28T11:38:53;1.65;;;1.55;;
80494;SDS011;69819;48.798;11.770;2023-07-28T11:41:23;2.72;;;1.65;;
80494;SDS011;69819;48.798;11.770;2023-07-28T11:43:51;1.40;;;1.30;;
80494;SDS011;69819;48.798;11.770;2023-07-28T11:46:36;1.98;;;1.48;;
80494;SDS011;69819;48.798;11.770;2023-07-28T11:49:13;1.50;;;1.40;;
80494;SDS011;69819;48.798;11.770;2023-07-28T11:54:20;1.90;;;0.93;;
80494;SDS011;69819;48.798;11.770;2023-07-28T11:56:51;1.40;;;1.33;;
80494;SDS011;69819;48.798;11.770;2023-07-28T11:59:21;1.23;;;1.13;;
80494;SDS011;69819;48.798;11.770;2023-07-28T12:01:51;0.75;;;0.75;;
80494;SDS011;69819;48.798;11.770;2023-07-28T12:04:25;1.27;;;1.17;;
80494;SDS011;69819;48.798;11.770;2023-07-28T12:09:31;1.60;;;1.02;;
80494;SDS011;69819;48.798;11.770;2023-07-28T12:12:19;0.90;;;0.90;;
80494;SDS011;69819;48.798;11.770;2023-07-28T12:14:49;0.93;;;0.93;;
80494;SDS011;69819;48.798;11.770;2023-07-28T12:17:19;1.13;;;0.95;;
80494;SDS011;69819;48.798;11.770;2023-07-28T12:22:38;1.30;;;1.00;;
80494;SDS011;69819;48.798;11.770;2023-07-28T12:25:05;0.98;;;0.98;;
80494;SDS011;69819;48.798;11.770;2023-07-28T12:27:32;0.80;;;0.80;;
80494;SDS011;69819;48.798;11.770;2023-07-28T12:29:59;2.28;;;0.85;;
80494;SDS011;69819;48.798;11.770;2023-07-28T12:32:26;0.82;;;0.82;;
80494;SDS011;69819;48.798;11.770;2023-07-28T12:34:52;1.08;;;0.73;;
80494;SDS011;69819;48.798;11.770;2023-07-28T12:37:18;0.82;;;0.80;;
80494;SDS011;69819;48.798;11.770;2023-07-28T12:39:45;0.60;;;0.60;;
80494;SDS011;69819;48.798;11.770;2023-07-28T12:42:13;0.88;;;0.88;;
80494;SDS011;69819;48.798;11.770;2023-07-28T12:44:39;0.80;;;0.80;;
80494;SDS011;69819;48.798;11.770;2023-07-28T12:47:06;1.83;;;0.75;;
80494;SDS011;69819;48.798;11.770;2023-07-28T12:49:33;1.50;;;0.70;;
80494;SDS011;69819;48.798;11.770;2023-07-28T12:52:03;0.90;;;0.90;;
80494;SDS011;69819;48.798;11.770;2023-07-28T12:54:34;0.80;;;0.80;;
80494;SDS011;69819;48.798;11.770;2023-07-28T12:57:00;0.73;;;0.73;;
80494;SDS011;69819;48.798;11.770;2023-07-28T12:59:26;1.40;;;0.70;;
80494;SDS011;69819;48.798;11.770;2023-07-28T13:01:54;0.60;;;0.60;;
80494;SDS011;69819;48.798;11.770;2023-07-28T13:04:20;0.50;;;0.50;;
80494;SDS011;69819;48.798;11.770;2023-07-28T13:06:46;0.60;;;0.60;;
80494;SDS011;69819;48.798;11.770;2023-07-28T13:09:12;0.68;;;0.68;;
80494;SDS011;69819;48.798;11.770;2023-07-28T13:11:38;0.70;;;0.70;;
80494;SDS011;69819;48.798;11.770;2023-07-28T13:14:04;1.17;;;1.10;;
80494;SDS011;69819;48.798;11.770;2023-07-28T13:16:30;1.27;;;1.17;;
80494;SDS011;69819;48.798;11.770;2023-07-28T13:18:56;0.68;;;0.60;;
80494;SDS011;69819;48.798;11.770;2023-07-28T13:21:22;1.10;;;0.60;;
80494;SDS011;69819;48.798;11.770;2023-07-28T13:23:51;0.40;;;0.40;;
80494;SDS011;69819;48.798;11.770;2023-07-28T13:26:17;0.60;;;0.60;;
80494;SDS011;69819;48.798;11.770;2023-07-28T13:28:43;0.30;;;0.30;;
80494;SDS011;69819;48.798;11.770;2023-07-28T13:31:12;0.45;;;0.30;;
80494;SDS011;69819;48.798;11.770;2023-07-28T13:33:40;0.30;;;0.30;;
80494;SDS011;69819;48.798;11.770;2023-07-28T13:36:06;0.30;;;0.30;;
80494;SDS011;69819;48.798;11.770;2023-07-28T13:38:34;0.22;;;0.22;;
80494;SDS011;69819;48.798;11.770;2023-07-28T13:41:03;0.35;;;0.35;;
80494;SDS011;69819;48.798;11.770;2023-07-28T13:43:31;0.22;;;0.22;;
80494;SDS011;69819;48.798;11.770;2023-07-28T13:46:03;0.30;;;0.30;;
80494;SDS011;69819;48.798;11.770;2023-07-28T13:48:32;0.20;;;0.20;;
80494;SDS011;69819;48.798;11.770;2023-07-28T13:51:01;0.10;;;0.10;;
80494;SDS011;69819;48.798;11.770;2023-07-28T13:53:27;0.65;;;0.30;;
80494;SDS011;69819;48.798;11.770;2023-07-28T13:55:54;1.85;;;0.30;;
80494;SDS011;69819;48.798;11.770;2023-07-28T13:58:20;0.30;;;0.30;;
80494;SDS011;69819;48.798;11.770;2023-07-28T14:00:46;0.65;;;0.30;;
80494;SDS011;69819;48.798;11.770;2023-07-28T14:03:12;0.35;;;0.20;;
80494;SDS011;69819;48.798;11.770;2023-07-28T14:05:39;0.60;;;0.40;;
80494;SDS011;69819;48.798;11.770;2023-07-28T14:08:05;0.30;;;0.30;;
80494;SDS011;69819;48.798;11.770;2023-07-28T14:10:31;0.32;;;0.32;;
80494;SDS011;69819;48.798;11.770;2023-07-28T14:13:00;0.30;;;0.30;;
80494;SDS011;69819;48.798;11.770;2023-07-28T14:15:26;1.33;;;0.43;;
80494;SDS011;69819;48.798;11.770;2023-07-28T14:17:56;0.43;;;0.43;;
80494;SDS011;69819;48.798;11.770;2023-07-28T14:20:22;0.40;;;0.40;;
80494;SDS011;69819;48.798;11.770;2023-07-28T14:22:48;0.50;;;0.50;;
80494;SDS011;69819;48.798;11.770;2023-07-28T14:25:14;0.57;;;0.43;;
80494;SDS011;69819;48.798;11.770;2023-07-28T14:27:40;0.30;;;0.30;;
80494;SDS011;69819;48.798;11.770;2023-07-28T14:30:07;0.28;;;0.28;;
80494;SDS011;69819;48.798;11.770;2023-07-28T14:32:34;0.40;;;0.40;;
80494;SDS011;69819;48.798;11.770;2023-07-28T14:35:00;1.35;;;0.28;;
80494;SDS011;69819;48.798;11.770;2023-07-28T14:37:25;0.32;;;0.32;;
80494;SDS011;69819;48.798;11.770;2023-07-28T14:39:51;0.30;;;0.30;;
80494;SDS011;69819;48.798;11.770;2023-07-28T14:42:18;0.50;;;0.50;;
80494;SDS011;69819;48.798;11.770;2023-07-28T14:44:44;0.30;;;0.30;;
80494;SDS011;69819;48.798;11.770;2023-07-28T14:47:10;0.40;;;0.40;;
80494;SDS011;69819;48.798;11.770;2023-07-28T14:49:36;0.30;;;0.30;;
80494;SDS011;69819;48.798;11.770;2023-07-28T14:52:02;0.20;;;0.20;;
80494;SDS011;69819;48.798;11.770;2023-07-28T14:54:28;0.45;;;0.30;;